sensor_id;sensor_type;location;lat;lon;timestamp;temperature;humidity
32877;DHT22;19226;51.600;8.034;2023-03-05T00:00:00;4.80;99.90
32877;DHT22;19226;51.600;8.034;2023-03-05T00:02:44;4.80;99.90
32877;DHT22;19226;51.600;8.034;2023-03-05T00:05:29;4.90;99.90
32877;DHT22;19226;51.600;8.034;2023-03-05T00:08:16;4.80;99.90
32877;DHT22;19226;51.600;8.034;2023-03-05T00:11:03;4.90;99.90
32877;DHT22;19226;51.600;8.034;2023-03-05T00:13:51;4.90;99.90
32877;DHT22;19226;51.600;8.034;2023-03-05T00:16:35;4.90;99.90
32877;DHT22;19226;51.600;8.034;2023-03-05T00:19:20;4.90;99.90
32877;DHT22;19226;51.600;8.034;2023-03-05T00:22:04;4.80;99.90
32877;DHT22;19226;51.600;8.034;2023-03-05T00:24:50;4.80;99.90
32877;DHT22;19226;51.600;8.034;2023-03-05T00:27:34;4.80;99.90
32877;DHT22;19226;51.600;8.034;2023-03-05T00:30:20;4.80;99.90
32877;DHT22;19226;51.600;8.034;2023-03-05T00:33:05;4.80;99.90
32877;DHT22;19226;51.600;8.034;2023-03-05T00:35:50;4.80;99.90
32877;DHT22;19226;51.600;8.034;2023-03-05T00:38:35;4.70;99.90
32877;DHT22;19226;51.600;8.034;2023-03-05T00:41:19;4.70;99.90
32877;DHT22;19226;51.600;8.034;2023-03-05T00:44:04;4.70;99.90
32877;DHT22;19226;51.600;8.034;2023-03-05T00:46:48;4.70;99.90
32877;DHT22;19226;51.600;8.034;2023-03-05T00:49:33;4.70;99.90
32877;DHT22;19226;51.600;8.034;2023-03-05T00:52:17;4.70;99.90
32877;DHT22;19226;51.600;8.034;2023-03-05T00:55:02;4.70;99.90
32877;DHT22;19226;51.600;8.034;2023-03-05T00:57:47;4.70;99.90
32877;DHT22;19226;51.600;8.034;2023-03-05T01:00:31;4.70;99.90
32877;DHT22;19226;51.600;8.034;2023-03-05T01:03:17;4.70;99.90
32877;DHT22;19226;51.600;8.034;2023-03-05T01:06:11;4.70;99.90
32877;DHT22;19226;51.600;8.034;2023-03-05T01:08:56;4.70;99.90
32877;DHT22;19226;51.600;8.034;2023-03-05T01:11:42;4.70;99.90
32877;DHT22;19226;51.600;8.034;2023-03-05T01:14:27;4.60;99.90
32877;DHT22;19226;51.600;8.034;2023-03-05T01:17:11;4.70;99.90
32877;DHT22;19226;51.600;8.034;2023-03-05T01:19:56;4.70;99.90
32877;DHT22;19226;51.600;8.034;2023-03-05T01:22:41;4.60;99.90
32877;DHT22;19226;51.600;8.034;2023-03-05T01:25:25;4.70;99.90
32877;DHT22;19226;51.600;8.034;2023-03-05T01:28:10;4.70;99.90
32877;DHT22;19226;51.600;8.034;2023-03-05T01:30:54;4.60;99.90
32877;DHT22;19226;51.600;8.034;2023-03-05T01:33:39;4.60;99.90
32877;DHT22;19226;51.600;8.034;2023-03-05T01:36:23;4.50;99.90
32877;DHT22;19226;51.600;8.034;2023-03-05T01:39:08;4.60;99.90
32877;DHT22;19226;51.600;8.034;2023-03-05T01:41:52;4.60;99.90
32877;DHT22;19226;51.600;8.034;2023-03-05T01:44:38;4.50;99.90
32877;DHT22;19226;51.600;8.034;2023-03-05T01:47:23;4.50;99.90
32877;DHT22;19226;51.600;8.034;2023-03-05T01:50:11;4.50;99.90
32877;DHT22;19226;51.600;8.034;2023-03-05T01:53:02;4.50;99.90
32877;DHT22;19226;51.600;8.034;2023-03-05T01:55:47;4.40;99.90
32877;DHT22;19226;51.600;8.034;2023-03-05T01:58:31;4.40;99.90
32877;DHT22;19226;51.600;8.034;2023-03-05T02:01:16;4.40;99.90
32877;DHT22;19226;51.600;8.034;2023-03-05T02:04:01;4.40;99.90
32877;DHT22;19226;51.600;8.034;2023-03-05T02:06:46;4.40;99.90
32877;DHT22;19226;51.600;8.034;2023-03-05T02:09:32;4.40;99.90
32877;DHT22;19226;51.600;8.034;2023-03-05T02:12:17;4.30;99.90
32877;DHT22;19226;51.600;8.034;2023-03-05T02:15:02;4.30;99.90
32877;DHT22;19226;51.600;8.034;2023-03-05T02:17:47;4.30;99.90
32877;DHT22;19226;51.600;8.034;2023-03-05T02:20:50;4.40;99.90
32877;DHT22;19226;51.600;8.034;2023-03-05T02:23:36;4.40;99.90
32877;DHT22;19226;51.600;8.034;2023-03-05T02:26:21;4.40;99.90
32877;DHT22;19226;51.600;8.034;2023-03-05T02:29:07;4.30;99.90
32877;DHT22;19226;51.600;8.034;2023-03-05T02:31:53;4.30;99.90
32877;DHT22;19226;51.600;8.034;2023-03-05T02:34:38;4.30;99.90
32877;DHT22;19226;51.600;8.034;2023-03-05T02:37:24;4.30;99.90
32877;DHT22;19226;51.600;8.034;2023-03-05T02:40:10;4.30;99.90
32877;DHT22;19226;51.600;8.034;2023-03-05T02:42:55;4.30;99.90
32877;DHT22;19226;51.600;8.034;2023-03-05T02:45:40;4.30;99.90
32877;DHT22;19226;51.600;8.034;2023-03-05T02:48:24;4.20;99.90
32877;DHT22;19226;51.600;8.034;2023-03-05T02:51:09;4.30;99.90
32877;DHT22;19226;51.600;8.034;2023-03-05T02:53:53;4.30;99.90
32877;DHT22;19226;51.600;8.034;2023-03-05T02:56:40;4.30;99.90
32877;DHT22;19226;51.600;8.034;2023-03-05T02:59:25;4.30;99.90
32877;DHT22;19226;51.600;8.034;2023-03-05T03:02:09;4.30;99.90
32877;DHT22;19226;51.600;8.034;2023-03-05T03:04:54;4.30;99.90
32877;DHT22;19226;51.600;8.034;2023-03-05T03:07:38;4.20;99.90
32877;DHT22;19226;51.600;8.034;2023-03-05T03:10:23;4.30;99.90
32877;DHT22;19226;51.600;8.034;2023-03-05T03:13:08;4.30;99.90
32877;DHT22;19226;51.600;8.034;2023-03-05T03:16:01;4.20;99.90
32877;DHT22;19226;51.600;8.034;2023-03-05T03:18:48;4.20;99.90
32877;DHT22;19226;51.600;8.034;2023-03-05T03:21:32;4.20;99.90
32877;DHT22;19226;51.600;8.034;2023-03-05T03:24:17;4.20;99.90
32877;DHT22;19226;51.600;8.034;2023-03-05T03:27:02;4.20;99.90
32877;DHT22;19226;51.600;8.034;2023-03-05T03:29:47;4.20;99.90
32877;DHT22;19226;51.600;8.034;2023-03-05T03:32:32;4.20;99.90
32877;DHT22;19226;51.600;8.034;2023-03-05T03:35:16;4.20;99.90
32877;DHT22;19226;51.600;8.034;2023-03-05T03:38:01;4.20;99.90
32877;DHT22;19226;51.600;8.034;2023-03-05T03:40:45;4.20;99.90
32877;DHT22;19226;51.600;8.034;2023-03-05T03:43:30;4.20;99.90
32877;DHT22;19226;51.600;8.034;2023-03-05T03:46:14;4.10;99.90
32877;DHT22;19226;51.600;8.034;2023-03-05T03:49:00;4.10;99.90
32877;DHT22;19226;51.600;8.034;2023-03-05T03:51:44;4.10;99.90
32877;DHT22;19226;51.600;8.034;2023-03-05T03:54:29;4.10;99.90
32877;DHT22;19226;51.600;8.034;2023-03-05T03:57:14;4.10;99.90
32877;DHT22;19226;51.600;8.034;2023-03-05T03:59:59;4.10;99.90
32877;DHT22;19226;51.600;8.034;2023-03-05T04:02:44;4.10;99.90
32877;DHT22;19226;51.600;8.034;2023-03-05T04:05:28;4.10;99.90
32877;DHT22;19226;51.600;8.034;2023-03-05T04:08:13;4.10;99.90
32877;DHT22;19226;51.600;8.034;2023-03-05T04:10:59;4.10;99.90
32877;DHT22;19226;51.600;8.034;2023-03-05T04:13:45;4.10;99.90
32877;DHT22;19226;51.600;8.034;2023-03-05T04:16:29;4.00;99.90
32877;DHT22;19226;51.600;8.034;2023-03-05T04:19:14;4.10;99.90
32877;DHT22;19226;51.600;8.034;2023-03-05T04:21:58;4.10;99.90
32877;DHT22;19226;51.600;8.034;2023-03-05T04:24:43;4.10;99.90
32877;DHT22;19226;51.600;8.034;2023-03-05T04:27:28;4.10;99.90
32877;DHT22;19226;51.600;8.034;2023-03-05T04:30:13;4.10;99.90
32877;DHT22;19226;51.600;8.034;2023-03-05T04:32:57;4.10;99.90
32877;DHT22;19226;51.600;8.034;2023-03-05T04:35:42;4.10;99.90
32877;DHT22;19226;51.600;8.034;2023-03-05T04:38:26;4.10;99.90
32877;DHT22;19226;51.600;8.034;2023-03-05T04:41:11;4.10;99.90
32877;DHT22;19226;51.600;8.034;2023-03-05T04:43:56;4.10;99.90
32877;DHT22;19226;51.600;8.034;2023-03-05T04:46:40;4.10;99.90
32877;DHT22;19226;51.600;8.034;2023-03-05T04:49:25;4.10;99.90
32877;DHT22;19226;51.600;8.034;2023-03-05T04:52:14;4.10;99.90
32877;DHT22;19226;51.600;8.034;2023-03-05T04:54:58;4.10;99.90
32877;DHT22;19226;51.600;8.034;2023-03-05T04:57:43;4.10;99.90
32877;DHT22;19226;51.600;8.034;2023-03-05T05:00:27;4.10;99.90
32877;DHT22;19226;51.600;8.034;2023-03-05T05:03:12;4.00;99.90
32877;DHT22;19226;51.600;8.034;2023-03-05T05:05:58;4.00;99.90
32877;DHT22;19226;51.600;8.034;2023-03-05T05:08:43;4.10;99.90
32877;DHT22;19226;51.600;8.034;2023-03-05T05:11:27;4.00;99.90
32877;DHT22;19226;51.600;8.034;2023-03-05T05:14:12;4.00;99.90
32877;DHT22;19226;51.600;8.034;2023-03-05T05:16:56;4.00;99.90
32877;DHT22;19226;51.600;8.034;2023-03-05T05:19:41;4.00;99.90
32877;DHT22;19226;51.600;8.034;2023-03-05T05:22:27;4.00;99.90
32877;DHT22;19226;51.600;8.034;2023-03-05T05:25:12;4.00;99.90
32877;DHT22;19226;51.600;8.034;2023-03-05T05:27:57;4.00;99.90
32877;DHT22;19226;51.600;8.034;2023-03-05T05:30:41;4.00;99.90
32877;DHT22;19226;51.600;8.034;2023-03-05T05:33:26;4.00;99.90
32877;DHT22;19226;51.600;8.034;2023-03-05T05:36:15;3.90;99.90
32877;DHT22;19226;51.600;8.034;2023-03-05T05:39:00;3.90;99.90
32877;DHT22;19226;51.600;8.034;2023-03-05T05:41:44;3.90;99.90
32877;DHT22;19226;51.600;8.034;2023-03-05T05:44:29;3.90;99.90
32877;DHT22;19226;51.600;8.034;2023-03-05T05:47:15;3.90;99.90
32877;DHT22;19226;51.600;8.034;2023-03-05T05:49:59;3.90;99.90
32877;DHT22;19226;51.600;8.034;2023-03-05T05:52:44;3.80;99.90
32877;DHT22;19226;51.600;8.034;2023-03-05T05:55:29;3.80;99.90
32877;DHT22;19226;51.600;8.034;2023-03-05T05:58:13;3.80;99.90
32877;DHT22;19226;51.600;8.034;2023-03-05T06:00:58;3.70;99.90
32877;DHT22;19226;51.600;8.034;2023-03-05T06:03:43;3.70;99.90
32877;DHT22;19226;51.600;8.034;2023-03-05T06:06:28;3.70;99.90
32877;DHT22;19226;51.600;8.034;2023-03-05T06:09:12;3.70;99.90
32877;DHT22;19226;51.600;8.034;2023-03-05T06:11:57;3.70;99.90
32877;DHT22;19226;51.600;8.034;2023-03-05T06:14:42;3.70;99.90
32877;DHT22;19226;51.600;8.034;2023-03-05T06:17:27;3.80;99.90
32877;DHT22;19226;51.600;8.034;2023-03-05T06:20:12;3.80;99.90
32877;DHT22;19226;51.600;8.034;2023-03-05T06:22:56;3.70;99.90
32877;DHT22;19226;51.600;8.034;2023-03-05T06:25:40;3.80;99.90
32877;DHT22;19226;51.600;8.034;2023-03-05T06:28:25;3.80;99.90
32877;DHT22;19226;51.600;8.034;2023-03-05T06:31:18;3.80;99.90
32877;DHT22;19226;51.600;8.034;2023-03-05T06:34:05;3.80;99.90
32877;DHT22;19226;51.600;8.034;2023-03-05T06:36:50;3.80;99.90
32877;DHT22;19226;51.600;8.034;2023-03-05T06:39:34;3.70;99.90
32877;DHT22;19226;51.600;8.034;2023-03-05T06:42:19;3.80;99.90
32877;DHT22;19226;51.600;8.034;2023-03-05T06:45:04;3.70;99.90
32877;DHT22;19226;51.600;8.034;2023-03-05T06:47:49;3.70;99.90
32877;DHT22;19226;51.600;8.034;2023-03-05T06:50:35;3.70;99.90
32877;DHT22;19226;51.600;8.034;2023-03-05T06:53:20;3.70;99.90
32877;DHT22;19226;51.600;8.034;2023-03-05T06:56:04;3.80;99.90
32877;DHT22;19226;51.600;8.034;2023-03-05T06:58:50;3.80;99.90
32877;DHT22;19226;51.600;8.034;2023-03-05T07:01:35;3.80;99.90
32877;DHT22;19226;51.600;8.034;2023-03-05T07:04:20;3.80;99.90
32877;DHT22;19226;51.600;8.034;2023-03-05T07:07:07;3.80;99.90
32877;DHT22;19226;51.600;8.034;2023-03-05T07:09:51;3.90;99.90
32877;DHT22;19226;51.600;8.034;2023-03-05T07:12:37;3.90;99.90
32877;DHT22;19226;51.600;8.034;2023-03-05T07:15:22;3.90;99.90
32877;DHT22;19226;51.600;8.034;2023-03-05T07:18:06;3.90;99.90
32877;DHT22;19226;51.600;8.034;2023-03-05T07:20:51;4.00;99.90
32877;DHT22;19226;51.600;8.034;2023-03-05T07:23:35;4.00;99.90
32877;DHT22;19226;51.600;8.034;2023-03-05T07:26:21;4.00;99.90
32877;DHT22;19226;51.600;8.034;2023-03-05T07:29:05;4.00;99.90
32877;DHT22;19226;51.600;8.034;2023-03-05T07:31:50;4.00;99.90
32877;DHT22;19226;51.600;8.034;2023-03-05T07:34:36;4.00;99.90
32877;DHT22;19226;51.600;8.034;2023-03-05T07:37:21;4.00;99.90
32877;DHT22;19226;51.600;8.034;2023-03-05T07:40:06;4.10;99.90
32877;DHT22;19226;51.600;8.034;2023-03-05T07:42:51;4.10;99.90
32877;DHT22;19226;51.600;8.034;2023-03-05T07:45:46;4.10;99.90
32877;DHT22;19226;51.600;8.034;2023-03-05T07:48:36;4.10;99.90
32877;DHT22;19226;51.600;8.034;2023-03-05T07:51:25;4.10;99.90
32877;DHT22;19226;51.600;8.034;2023-03-05T07:54:13;4.10;99.90
32877;DHT22;19226;51.600;8.034;2023-03-05T07:56:57;4.10;99.90
32877;DHT22;19226;51.600;8.034;2023-03-05T07:59:45;4.10;99.90
32877;DHT22;19226;51.600;8.034;2023-03-05T08:02:29;4.20;99.90
32877;DHT22;19226;51.600;8.034;2023-03-05T08:05:14;4.20;99.90
32877;DHT22;19226;51.600;8.034;2023-03-05T08:07:59;4.30;99.90
32877;DHT22;19226;51.600;8.034;2023-03-05T08:10:43;4.30;99.90
32877;DHT22;19226;51.600;8.034;2023-03-05T08:13:28;4.30;99.90
32877;DHT22;19226;51.600;8.034;2023-03-05T08:16:17;4.40;99.90
32877;DHT22;19226;51.600;8.034;2023-03-05T08:19:02;4.40;99.90
32877;DHT22;19226;51.600;8.034;2023-03-05T08:21:48;4.40;99.90
32877;DHT22;19226;51.600;8.034;2023-03-05T08:24:33;4.50;99.90
32877;DHT22;19226;51.600;8.034;2023-03-05T08:27:17;4.40;99.90
32877;DHT22;19226;51.600;8.034;2023-03-05T08:30:03;4.40;99.90
32877;DHT22;19226;51.600;8.034;2023-03-05T08:32:48;4.40;99.90
32877;DHT22;19226;51.600;8.034;2023-03-05T08:35:33;4.40;99.90
32877;DHT22;19226;51.600;8.034;2023-03-05T08:38:18;4.40;99.90
32877;DHT22;19226;51.600;8.034;2023-03-05T08:41:03;4.50;99.90
32877;DHT22;19226;51.600;8.034;2023-03-05T08:43:48;4.40;99.90
32877;DHT22;19226;51.600;8.034;2023-03-05T08:46:32;4.40;99.90
32877;DHT22;19226;51.600;8.034;2023-03-05T08:49:21;4.50;99.90
32877;DHT22;19226;51.600;8.034;2023-03-05T08:52:06;4.50;99.90
32877;DHT22;19226;51.600;8.034;2023-03-05T08:54:50;4.50;99.90
32877;DHT22;19226;51.600;8.034;2023-03-05T08:57:35;4.50;99.90
32877;DHT22;19226;51.600;8.034;2023-03-05T09:00:20;4.60;99.90
32877;DHT22;19226;51.600;8.034;2023-03-05T09:03:04;4.50;99.90
32877;DHT22;19226;51.600;8.034;2023-03-05T09:05:49;4.50;99.90
32877;DHT22;19226;51.600;8.034;2023-03-05T09:08:35;4.50;99.90
32877;DHT22;19226;51.600;8.034;2023-03-05T09:11:19;4.60;99.90
32877;DHT22;19226;51.600;8.034;2023-03-05T09:14:05;4.60;99.90
32877;DHT22;19226;51.600;8.034;2023-03-05T09:16:50;4.60;99.90
32877;DHT22;19226;51.600;8.034;2023-03-05T09:19:34;4.60;99.90
32877;DHT22;19226;51.600;8.034;2023-03-05T09:22:20;4.60;99.90
32877;DHT22;19226;51.600;8.034;2023-03-05T09:25:07;4.60;99.90
32877;DHT22;19226;51.600;8.034;2023-03-05T09:27:53;4.70;99.90
32877;DHT22;19226;51.600;8.034;2023-03-05T09:30:37;4.70;99.90
32877;DHT22;19226;51.600;8.034;2023-03-05T09:33:22;4.70;99.90
32877;DHT22;19226;51.600;8.034;2023-03-05T09:36:21;4.70;99.90
32877;DHT22;19226;51.600;8.034;2023-03-05T09:39:07;4.70;99.90
32877;DHT22;19226;51.600;8.034;2023-03-05T09:45:06;4.70;99.90
32877;DHT22;19226;51.600;8.034;2023-03-05T09:50:55;4.70;99.90
32877;DHT22;19226;51.600;8.034;2023-03-05T09:54:20;4.70;99.90
32877;DHT22;19226;51.600;8.034;2023-03-05T09:57:12;4.70;99.90
32877;DHT22;19226;51.600;8.034;2023-03-05T10:00:00;4.80;99.90
32877;DHT22;19226;51.600;8.034;2023-03-05T10:02:58;4.80;99.90
32877;DHT22;19226;51.600;8.034;2023-03-05T10:06:23;4.80;99.90
32877;DHT22;19226;51.600;8.034;2023-03-05T10:09:21;5.00;99.90
32877;DHT22;19226;51.600;8.034;2023-03-05T10:12:22;5.10;99.90
32877;DHT22;19226;51.600;8.034;2023-03-05T10:21:17;5.40;99.90
32877;DHT22;19226;51.600;8.034;2023-03-05T10:27:07;5.50;99.90
32877;DHT22;19226;51.600;8.034;2023-03-05T10:33:11;5.70;99.90
32877;DHT22;19226;51.600;8.034;2023-03-05T10:36:18;5.90;99.90
32877;DHT22;19226;51.600;8.034;2023-03-05T10:45:45;6.40;99.90
32877;DHT22;19226;51.600;8.034;2023-03-05T10:51:50;6.60;99.90
32877;DHT22;19226;51.600;8.034;2023-03-05T10:54:37;6.70;99.90
32877;DHT22;19226;51.600;8.034;2023-03-05T10:57:28;6.70;99.90
32877;DHT22;19226;51.600;8.034;2023-03-05T11:00:24;6.80;99.90
32877;DHT22;19226;51.600;8.034;2023-03-05T11:03:09;6.90;99.90
32877;DHT22;19226;51.600;8.034;2023-03-05T11:06:02;6.90;99.90
32877;DHT22;19226;51.600;8.034;2023-03-05T11:08:55;6.90;99.90
32877;DHT22;19226;51.600;8.034;2023-03-05T11:11:39;7.00;99.90
32877;DHT22;19226;51.600;8.034;2023-03-05T11:14:28;7.00;99.90
32877;DHT22;19226;51.600;8.034;2023-03-05T11:17:33;6.80;99.90
32877;DHT22;19226;51.600;8.034;2023-03-05T11:20:36;6.70;99.90
32877;DHT22;19226;51.600;8.034;2023-03-05T11:23:22;6.60;99.90
32877;DHT22;19226;51.600;8.034;2023-03-05T11:26:21;6.60;99.90
32877;DHT22;19226;51.600;8.034;2023-03-05T11:29:17;6.60;99.90
32877;DHT22;19226;51.600;8.034;2023-03-05T11:32:23;6.60;99.90
32877;DHT22;19226;51.600;8.034;2023-03-05T11:35:29;6.60;99.90
32877;DHT22;19226;51.600;8.034;2023-03-05T11:38:26;6.60;99.90
32877;DHT22;19226;51.600;8.034;2023-03-05T11:41:11;6.50;99.90
32877;DHT22;19226;51.600;8.034;2023-03-05T11:43:58;6.50;99.90
32877;DHT22;19226;51.600;8.034;2023-03-05T11:46:47;6.40;99.90
32877;DHT22;19226;51.600;8.034;2023-03-05T11:49:32;6.40;99.90
32877;DHT22;19226;51.600;8.034;2023-03-05T11:52:28;6.30;99.90
32877;DHT22;19226;51.600;8.034;2023-03-05T11:55:17;6.30;99.90
32877;DHT22;19226;51.600;8.034;2023-03-05T11:58:41;6.30;99.90
32877;DHT22;19226;51.600;8.034;2023-03-05T12:01:31;6.30;99.90
32877;DHT22;19226;51.600;8.034;2023-03-05T12:04:16;6.20;99.90
32877;DHT22;19226;51.600;8.034;2023-03-05T12:07:02;6.30;99.90
32877;DHT22;19226;51.600;8.034;2023-03-05T12:09:49;6.20;99.90
32877;DHT22;19226;51.600;8.034;2023-03-05T12:18:50;6.00;99.90
32877;DHT22;19226;51.600;8.034;2023-03-05T12:21:35;5.90;99.90
32877;DHT22;19226;51.600;8.034;2023-03-05T12:27:12;5.90;99.90
32877;DHT22;19226;51.600;8.034;2023-03-05T12:29:58;5.90;99.90
32877;DHT22;19226;51.600;8.034;2023-03-05T12:32:50;5.80;99.90
32877;DHT22;19226;51.600;8.034;2023-03-05T12:35:39;5.80;99.90
32877;DHT22;19226;51.600;8.034;2023-03-05T12:38:30;5.80;99.90
32877;DHT22;19226;51.600;8.034;2023-03-05T12:47:23;5.80;99.90
32877;DHT22;19226;51.600;8.034;2023-03-05T12:53:19;5.80;99.90
32877;DHT22;19226;51.600;8.034;2023-03-05T12:56:20;5.70;99.90
32877;DHT22;19226;51.600;8.034;2023-03-05T12:59:11;5.70;99.90
32877;DHT22;19226;51.600;8.034;2023-03-05T13:02:02;5.70;99.90
32877;DHT22;19226;51.600;8.034;2023-03-05T13:04:48;5.70;99.90
32877;DHT22;19226;51.600;8.034;2023-03-05T13:07:35;5.70;99.90
32877;DHT22;19226;51.600;8.034;2023-03-05T13:10:27;5.80;99.90
32877;DHT22;19226;51.600;8.034;2023-03-05T13:13:13;5.80;99.90
32877;DHT22;19226;51.600;8.034;2023-03-05T13:15:59;5.80;99.90
32877;DHT22;19226;51.600;8.034;2023-03-05T13:18:46;5.90;99.90
32877;DHT22;19226;51.600;8.034;2023-03-05T13:21:32;5.90;99.90
32877;DHT22;19226;51.600;8.034;2023-03-05T13:24:17;6.10;99.90
32877;DHT22;19226;51.600;8.034;2023-03-05T13:27:27;6.20;99.90
32877;DHT22;19226;51.600;8.034;2023-03-05T13:30:25;6.30;99.90
32877;DHT22;19226;51.600;8.034;2023-03-05T13:33:16;6.40;99.90
32877;DHT22;19226;51.600;8.034;2023-03-05T13:36:03;6.60;99.90
32877;DHT22;19226;51.600;8.034;2023-03-05T13:38:48;6.70;99.90
32877;DHT22;19226;51.600;8.034;2023-03-05T13:41:33;6.80;99.90
32877;DHT22;19226;51.600;8.034;2023-03-05T13:44:20;6.90;99.90
32877;DHT22;19226;51.600;8.034;2023-03-05T13:47:19;6.90;99.90
32877;DHT22;19226;51.600;8.034;2023-03-05T13:50:18;7.00;99.90
32877;DHT22;19226;51.600;8.034;2023-03-05T13:53:26;7.10;99.90
32877;DHT22;19226;51.600;8.034;2023-03-05T13:56:18;7.30;99.90
32877;DHT22;19226;51.600;8.034;2023-03-05T13:59:03;7.30;99.90
32877;DHT22;19226;51.600;8.034;2023-03-05T14:01:50;7.40;99.90
32877;DHT22;19226;51.600;8.034;2023-03-05T14:04:37;7.40;99.90
32877;DHT22;19226;51.600;8.034;2023-03-05T14:07:37;7.50;99.90
32877;DHT22;19226;51.600;8.034;2023-03-05T14:10:35;7.70;99.90
32877;DHT22;19226;51.600;8.034;2023-03-05T14:13:22;7.70;99.90
32877;DHT22;19226;51.600;8.034;2023-03-05T14:19:48;7.90;99.90
32877;DHT22;19226;51.600;8.034;2023-03-05T14:22:36;8.10;99.90
32877;DHT22;19226;51.600;8.034;2023-03-05T14:25:38;8.20;99.90
32877;DHT22;19226;51.600;8.034;2023-03-05T14:28:28;8.20;99.90
32877;DHT22;19226;51.600;8.034;2023-03-05T14:31:16;8.40;99.90
32877;DHT22;19226;51.600;8.034;2023-03-05T14:34:05;8.60;99.90
32877;DHT22;19226;51.600;8.034;2023-03-05T14:36:50;8.60;99.90
32877;DHT22;19226;51.600;8.034;2023-03-05T14:39:44;8.70;99.90
32877;DHT22;19226;51.600;8.034;2023-03-05T14:45:42;8.70;99.90
32877;DHT22;19226;51.600;8.034;2023-03-05T14:48:31;8.70;99.90
32877;DHT22;19226;51.600;8.034;2023-03-05T14:51:16;8.80;99.90
32877;DHT22;19226;51.600;8.034;2023-03-05T14:54:02;8.80;99.90
32877;DHT22;19226;51.600;8.034;2023-03-05T14:56:47;8.80;99.90
32877;DHT22;19226;51.600;8.034;2023-03-05T14:59:32;8.80;99.90
32877;DHT22;19226;51.600;8.034;2023-03-05T15:02:20;8.80;99.90
32877;DHT22;19226;51.600;8.034;2023-03-05T15:05:05;8.90;99.90
32877;DHT22;19226;51.600;8.034;2023-03-05T15:07:50;9.00;99.90
32877;DHT22;19226;51.600;8.034;2023-03-05T15:10:35;9.10;99.90
32877;DHT22;19226;51.600;8.034;2023-03-05T15:13:20;9.10;99.90
32877;DHT22;19226;51.600;8.034;2023-03-05T15:16:06;9.10;99.90
32877;DHT22;19226;51.600;8.034;2023-03-05T15:18:51;9.00;99.90
32877;DHT22;19226;51.600;8.034;2023-03-05T15:21:35;9.00;99.90
32877;DHT22;19226;51.600;8.034;2023-03-05T15:24:20;8.90;99.90
32877;DHT22;19226;51.600;8.034;2023-03-05T15:27:05;9.00;99.90
32877;DHT22;19226;51.600;8.034;2023-03-05T15:29:50;8.90;99.90
32877;DHT22;19226;51.600;8.034;2023-03-05T15:32:35;8.90;99.90
32877;DHT22;19226;51.600;8.034;2023-03-05T15:35:21;8.90;99.90
32877;DHT22;19226;51.600;8.034;2023-03-05T15:38:06;8.90;99.90
32877;DHT22;19226;51.600;8.034;2023-03-05T15:40:52;8.90;99.90
32877;DHT22;19226;51.600;8.034;2023-03-05T15:43:37;9.00;99.90
32877;DHT22;19226;51.600;8.034;2023-03-05T15:46:22;8.90;99.90
32877;DHT22;19226;51.600;8.034;2023-03-05T15:49:07;8.90;99.90
32877;DHT22;19226;51.600;8.034;2023-03-05T15:51:53;8.80;99.90
32877;DHT22;19226;51.600;8.034;2023-03-05T15:54:38;8.70;99.90
32877;DHT22;19226;51.600;8.034;2023-03-05T15:57:23;8.80;99.90
32877;DHT22;19226;51.600;8.034;2023-03-05T16:00:09;8.70;99.90
32877;DHT22;19226;51.600;8.034;2023-03-05T16:02:54;8.70;99.90
32877;DHT22;19226;51.600;8.034;2023-03-05T16:05:39;8.70;99.90
32877;DHT22;19226;51.600;8.034;2023-03-05T16:08:24;8.70;99.90
32877;DHT22;19226;51.600;8.034;2023-03-05T16:11:09;8.60;99.90
32877;DHT22;19226;51.600;8.034;2023-03-05T16:13:55;8.70;99.90
32877;DHT22;19226;51.600;8.034;2023-03-05T16:16:40;8.70;99.90
32877;DHT22;19226;51.600;8.034;2023-03-05T16:19:25;8.60;99.90
32877;DHT22;19226;51.600;8.034;2023-03-05T16:22:10;8.60;99.90
32877;DHT22;19226;51.600;8.034;2023-03-05T16:24:54;8.60;99.90
32877;DHT22;19226;51.600;8.034;2023-03-05T16:27:41;8.50;99.90
32877;DHT22;19226;51.600;8.034;2023-03-05T16:30:26;8.50;99.90
32877;DHT22;19226;51.600;8.034;2023-03-05T16:33:10;8.30;99.90
32877;DHT22;19226;51.600;8.034;2023-03-05T16:36:18;8.30;99.90
32877;DHT22;19226;51.600;8.034;2023-03-05T16:39:04;8.10;99.90
32877;DHT22;19226;51.600;8.034;2023-03-05T16:41:49;8.10;99.90
32877;DHT22;19226;51.600;8.034;2023-03-05T16:44:34;8.00;99.90
32877;DHT22;19226;51.600;8.034;2023-03-05T16:47:18;8.00;99.90
32877;DHT22;19226;51.600;8.034;2023-03-05T16:50:04;7.90;99.90
32877;DHT22;19226;51.600;8.034;2023-03-05T16:52:49;7.90;99.90
32877;DHT22;19226;51.600;8.034;2023-03-05T16:55:35;7.80;99.90
32877;DHT22;19226;51.600;8.034;2023-03-05T16:58:22;7.70;99.90
32877;DHT22;19226;51.600;8.034;2023-03-05T17:01:11;7.60;99.90
32877;DHT22;19226;51.600;8.034;2023-03-05T17:03:57;7.60;99.90
32877;DHT22;19226;51.600;8.034;2023-03-05T17:06:47;7.60;99.90
32877;DHT22;19226;51.600;8.034;2023-03-05T17:09:33;7.50;99.90
32877;DHT22;19226;51.600;8.034;2023-03-05T17:12:19;7.40;99.90
32877;DHT22;19226;51.600;8.034;2023-03-05T17:15:05;7.30;99.90
32877;DHT22;19226;51.600;8.034;2023-03-05T17:17:49;7.20;99.90
32877;DHT22;19226;51.600;8.034;2023-03-05T17:20:34;7.20;99.90
32877;DHT22;19226;51.600;8.034;2023-03-05T17:23:19;7.20;99.90
32877;DHT22;19226;51.600;8.034;2023-03-05T17:26:10;7.10;99.90
32877;DHT22;19226;51.600;8.034;2023-03-05T17:28:54;7.00;99.90
32877;DHT22;19226;51.600;8.034;2023-03-05T17:31:39;7.00;99.90
32877;DHT22;19226;51.600;8.034;2023-03-05T17:34:23;6.90;99.90
32877;DHT22;19226;51.600;8.034;2023-03-05T17:37:08;6.80;99.90
32877;DHT22;19226;51.600;8.034;2023-03-05T17:39:52;6.70;99.90
32877;DHT22;19226;51.600;8.034;2023-03-05T17:42:40;6.60;99.90
32877;DHT22;19226;51.600;8.034;2023-03-05T17:45:26;6.60;99.90
32877;DHT22;19226;51.600;8.034;2023-03-05T17:48:13;6.50;99.90
32877;DHT22;19226;51.600;8.034;2023-03-05T17:51:05;6.40;99.90
32877;DHT22;19226;51.600;8.034;2023-03-05T17:53:50;6.30;99.90
32877;DHT22;19226;51.600;8.034;2023-03-05T17:56:35;6.20;99.90
32877;DHT22;19226;51.600;8.034;2023-03-05T17:59:19;6.10;99.90
32877;DHT22;19226;51.600;8.034;2023-03-05T18:02:04;6.10;99.90
32877;DHT22;19226;51.600;8.034;2023-03-05T18:04:49;6.00;99.90
32877;DHT22;19226;51.600;8.034;2023-03-05T18:07:35;6.10;99.90
32877;DHT22;19226;51.600;8.034;2023-03-05T18:10:23;5.90;99.90
32877;DHT22;19226;51.600;8.034;2023-03-05T18:13:08;5.90;99.90
32877;DHT22;19226;51.600;8.034;2023-03-05T18:15:59;5.90;99.90
32877;DHT22;19226;51.600;8.034;2023-03-05T18:18:46;5.90;99.90
32877;DHT22;19226;51.600;8.034;2023-03-05T18:21:31;5.80;99.90
32877;DHT22;19226;51.600;8.034;2023-03-05T18:24:17;5.70;99.90
32877;DHT22;19226;51.600;8.034;2023-03-05T18:27:02;5.60;99.90
32877;DHT22;19226;51.600;8.034;2023-03-05T18:29:47;5.60;99.90
32877;DHT22;19226;51.600;8.034;2023-03-05T18:32:33;5.60;99.90
32877;DHT22;19226;51.600;8.034;2023-03-05T18:35:17;5.50;99.90
32877;DHT22;19226;51.600;8.034;2023-03-05T18:38:03;5.50;99.90
32877;DHT22;19226;51.600;8.034;2023-03-05T18:40:48;5.50;99.90
32877;DHT22;19226;51.600;8.034;2023-03-05T18:43:34;5.50;99.90